createdAt,value
2019-01-10T00:00:28.403Z,0
2019-01-10T00:01:38.553Z,0
2019-01-10T00:02:48.687Z,0
2019-01-10T00:03:58.824Z,0
2019-01-10T00:05:08.957Z,0
2019-01-10T00:06:19.069Z,0
2019-01-10T00:07:29.191Z,0
2019-01-10T00:08:39.322Z,0
2019-01-10T00:09:49.467Z,0
2019-01-10T00:10:59.590Z,0
2019-01-10T00:12:09.706Z,0
2019-01-10T00:13:19.845Z,0
2019-01-10T00:14:29.967Z,0
2019-01-10T00:15:40.192Z,0
2019-01-10T00:16:50.083Z,0
2019-01-10T00:18:00.214Z,0
2019-01-10T00:19:10.318Z,0
2019-01-10T00:20:20.441Z,0
2019-01-10T00:21:30.557Z,0
2019-01-10T00:22:40.668Z,0
2019-01-10T00:23:50.816Z,0
2019-01-10T00:25:00.896Z,0
2019-01-10T00:26:11.021Z,0
2019-01-10T00:27:21.150Z,0
2019-01-10T00:28:31.010Z,0
2019-01-10T00:29:41.132Z,0
2019-01-10T00:30:51.248Z,0
2019-01-10T00:32:01.365Z,0
2019-01-10T00:33:11.468Z,0
2019-01-10T00:34:21.219Z,0
2019-01-10T00:35:31.353Z,0
2019-01-10T00:36:41.486Z,0
2019-01-10T00:37:51.594Z,0
2019-01-10T00:39:01.712Z,0
2019-01-10T00:40:11.876Z,0
2019-01-10T00:41:22.239Z,0
2019-01-10T00:42:31.994Z,0
2019-01-10T00:43:42.112Z,0
2019-01-10T00:44:52.213Z,0
2019-01-10T00:46:02.335Z,0
2019-01-10T00:47:12.462Z,0
2019-01-10T00:48:22.317Z,0
2019-01-10T00:49:32.414Z,0
2019-01-10T00:50:42.526Z,0
2019-01-10T00:51:52.008Z,0
2019-01-10T00:53:02.120Z,0
2019-01-10T00:54:12.243Z,0
2019-01-10T00:55:22.354Z,0
2019-01-10T00:56:32.463Z,0
2019-01-10T00:57:42.558Z,0
2019-01-10T00:58:52.426Z,0
2019-01-10T01:00:02.557Z,0
2019-01-10T01:01:12.657Z,0
2019-01-10T01:02:22.780Z,0
2019-01-10T01:03:32.883Z,0
2019-01-10T01:04:42.982Z,0
2019-01-10T01:05:53.113Z,0
2019-01-10T01:07:03.261Z,0
2019-01-10T01:08:13.377Z,0
2019-01-10T01:09:23.476Z,0
2019-01-10T01:10:33.589Z,0
2019-01-10T01:11:43.723Z,0
2019-01-10T02:18:06.180Z,0
2019-01-10T02:19:16.280Z,0
2019-01-10T02:20:26.376Z,0
2019-01-10T02:21:36.511Z,0
2019-01-10T02:22:48.286Z,0
2019-01-10T02:23:58.415Z,0
2019-01-10T02:25:08.528Z,0
2019-01-10T02:26:18.638Z,0
2019-01-10T02:27:28.739Z,0
2019-01-10T02:28:38.852Z,0
2019-01-10T02:29:48.961Z,0
2019-01-10T02:30:59.113Z,0
2019-01-10T02:32:09.249Z,0
2019-01-10T02:33:19.344Z,0
2019-01-10T02:34:29.448Z,0
2019-01-10T02:35:39.556Z,0
2019-01-10T02:36:49.683Z,0
2019-01-10T02:37:59.538Z,0
2019-01-10T02:39:09.664Z,0
2019-01-10T02:40:19.790Z,0
2019-01-10T02:41:29.888Z,0
2019-01-10T02:42:39.990Z,0
2019-01-10T02:43:50.111Z,0
2019-01-10T02:45:00.216Z,0
2019-01-10T02:46:10.067Z,0
2019-01-10T02:47:20.169Z,0
2019-01-10T02:48:30.258Z,0
2019-01-10T02:49:40.118Z,0
2019-01-10T02:50:50.215Z,0
2019-01-10T02:52:00.493Z,0
2019-01-10T02:53:10.395Z,0
2019-01-10T02:54:19.973Z,0
2019-01-10T02:55:29.839Z,0
2019-01-10T02:56:39.951Z,0
2019-01-10T02:57:50.051Z,0
2019-01-10T02:58:59.882Z,0
2019-01-10T03:00:09.987Z,0
2019-01-10T03:01:20.099Z,0
2019-01-10T03:02:30.211Z,0
2019-01-10T03:03:40.308Z,0
2019-01-10T03:04:50.414Z,0
2019-01-10T03:06:00.518Z,0
2019-01-10T03:07:10.623Z,0
2019-01-10T03:08:20.713Z,0
2019-01-10T03:09:32.881Z,0
2019-01-10T03:10:42.980Z,0
2019-01-10T03:11:53.088Z,0
2019-01-10T03:13:03.207Z,0
2019-01-10T03:14:13.310Z,0
2019-01-10T03:15:23.413Z,0
2019-01-10T03:16:33.542Z,0
2019-01-10T03:17:43.649Z,0
2019-01-10T03:18:53.752Z,0
2019-01-10T03:20:03.855Z,0
2019-01-10T03:21:13.975Z,0
2019-01-10T03:22:23.847Z,0
2019-01-10T03:23:33.950Z,0
2019-01-10T03:24:44.056Z,0
2019-01-10T03:25:54.158Z,0
2019-01-10T03:27:04.273Z,0
2019-01-10T03:28:14.366Z,0
2019-01-10T03:29:24.465Z,0
2019-01-10T03:30:34.616Z,0
2019-01-10T03:31:44.754Z,0
2019-01-10T03:32:54.948Z,0
2019-01-10T03:34:04.793Z,0
2019-01-10T03:35:14.890Z,0
2019-01-10T03:36:24.735Z,0
2019-01-10T03:37:34.895Z,0
2019-01-10T03:38:45.029Z,0
2019-01-10T03:39:55.240Z,0
2019-01-10T03:41:05.347Z,0
2019-01-10T03:42:15.456Z,0
2019-01-10T03:43:25.565Z,0
2019-01-10T03:44:43.839Z,0
2019-01-10T03:45:53.944Z,0
2019-01-10T03:47:04.036Z,0
2019-01-10T03:48:14.145Z,0
2019-01-10T03:49:24.343Z,0
2019-01-10T03:50:34.432Z,0
2019-01-10T03:51:44.612Z,0
2019-01-10T03:52:54.736Z,0
2019-01-10T03:54:04.587Z,0
2019-01-10T03:55:14.702Z,0
2019-01-10T03:56:24.805Z,0
2019-01-10T03:57:34.947Z,0
2019-01-10T03:58:45.044Z,0
2019-01-10T03:59:57.647Z,0
2019-01-10T04:01:07.424Z,0
2019-01-10T04:02:17.525Z,0
2019-01-10T04:03:27.624Z,0
2019-01-10T04:04:37.730Z,0
2019-01-10T04:05:47.838Z,0
2019-01-10T04:06:57.989Z,0
2019-01-10T04:08:08.089Z,0
2019-01-10T04:09:18.193Z,0
2019-01-10T04:10:28.285Z,0
2019-01-10T04:11:38.392Z,0
2019-01-10T04:12:48.500Z,0
2019-01-10T04:14:07.115Z,0
2019-01-10T04:15:17.228Z,0
2019-01-10T04:16:27.325Z,0
2019-01-10T04:17:37.665Z,0
2019-01-10T04:18:47.763Z,0
2019-01-10T04:19:59.858Z,0
2019-01-10T04:21:19.326Z,0
2019-01-10T04:22:29.454Z,0
2019-01-10T04:23:39.560Z,0
2019-01-10T04:24:49.663Z,0
2019-01-10T04:25:59.770Z,0
2019-01-10T04:27:09.867Z,0
2019-01-10T04:28:19.975Z,0
2019-01-10T04:29:29.836Z,0
2019-01-10T04:30:39.936Z,0
2019-01-10T04:31:50.047Z,0
2019-01-10T04:33:00.158Z,0
2019-01-10T04:34:10.274Z,0
2019-01-10T04:35:20.418Z,0
2019-01-10T04:36:32.708Z,0
2019-01-10T04:37:42.838Z,0
2019-01-10T04:38:52.699Z,0
2019-01-10T04:40:02.813Z,0
2019-01-10T04:41:12.911Z,0
2019-01-10T04:42:24.290Z,0
2019-01-10T04:43:34.471Z,0
2019-01-10T04:44:44.583Z,0
2019-01-10T04:45:54.693Z,0
2019-01-10T04:47:04.789Z,0
2019-01-10T04:48:14.894Z,0
2019-01-10T04:49:25.023Z,0
2019-01-10T04:50:35.134Z,0
2019-01-10T04:51:45.235Z,0
2019-01-10T04:52:55.442Z,0
2019-01-10T04:54:05.535Z,0
2019-01-10T04:55:15.413Z,0
2019-01-10T04:56:25.522Z,0
2019-01-10T04:57:35.383Z,0
2019-01-10T04:58:45.483Z,0
2019-01-10T04:59:55.583Z,0
2019-01-10T05:01:05.758Z,0
2019-01-10T05:02:25.433Z,0
2019-01-10T05:03:35.554Z,0
2019-01-10T05:04:45.648Z,0
2019-01-10T05:05:55.770Z,0
2019-01-10T05:07:05.888Z,0
2019-01-10T05:08:16.006Z,0
2019-01-10T05:09:26.093Z,0
2019-01-10T05:10:36.203Z,0
2019-01-10T05:11:46.305Z,0
2019-01-10T05:12:56.412Z,0
2019-01-10T05:14:06.531Z,0
2019-01-10T05:15:16.646Z,0
2019-01-10T05:16:26.503Z,0
2019-01-10T05:17:37.483Z,0
2019-01-10T05:18:47.680Z,0
2019-01-10T05:19:57.812Z,0
2019-01-10T05:21:07.942Z,0
2019-01-10T05:22:18.036Z,0
2019-01-10T05:23:29.624Z,0
2019-01-10T05:24:39.770Z,0
2019-01-10T05:25:49.872Z,0
2019-01-10T05:26:59.977Z,0
2019-01-10T05:28:10.114Z,0
2019-01-10T05:29:20.226Z,0
2019-01-10T05:30:30.444Z,0
2019-01-10T05:31:40.298Z,0
2019-01-10T05:32:50.392Z,0
2019-01-10T05:34:00.529Z,0
2019-01-10T05:35:10.628Z,0
2019-01-10T05:36:20.736Z,0
2019-01-10T05:37:30.843Z,0
2019-01-10T05:38:40.981Z,0
2019-01-10T05:39:57.195Z,0
2019-01-10T05:41:07.317Z,0
2019-01-10T05:42:18.496Z,0
2019-01-10T05:43:28.608Z,0
2019-01-10T05:44:38.734Z,0
2019-01-10T05:45:48.846Z,0
2019-01-10T05:46:58.936Z,0
2019-01-10T05:48:09.060Z,0
2019-01-10T05:49:19.178Z,0
2019-01-10T05:50:29.293Z,0
2019-01-10T05:51:39.396Z,0
2019-01-10T05:52:49.542Z,0
2019-01-10T05:53:59.639Z,0
2019-01-10T05:55:09.777Z,0
2019-01-10T05:56:25.104Z,0
2019-01-10T05:57:35.226Z,0
2019-01-10T05:58:47.052Z,0
2019-01-10T05:59:57.158Z,0
2019-01-10T06:01:07.276Z,0
2019-01-10T06:02:17.407Z,0
2019-01-10T06:03:27.507Z,0
2019-01-10T06:04:37.371Z,0
2019-01-10T06:05:47.479Z,0
2019-01-10T06:06:57.596Z,0
2019-01-10T06:08:07.703Z,0
2019-01-10T06:09:17.816Z,0
2019-01-10T06:10:27.937Z,0
2019-01-10T06:11:38.038Z,0
2019-01-10T06:12:47.881Z,0
2019-01-10T06:13:57.991Z,0
2019-01-10T06:15:08.304Z,0
2019-01-10T06:16:18.403Z,0
2019-01-10T06:17:28.533Z,0
2019-01-10T06:18:38.650Z,0
2019-01-10T06:19:48.846Z,0
2019-01-10T06:20:58.961Z,0
2019-01-10T06:22:09.070Z,0
2019-01-10T06:23:20.517Z,0
2019-01-10T06:24:30.670Z,0
2019-01-10T06:25:40.801Z,0
2019-01-10T06:26:50.912Z,0
2019-01-10T06:28:01.115Z,0
2019-01-10T06:29:11.221Z,0
2019-01-10T06:30:21.319Z,0
2019-01-10T06:31:31.429Z,0
2019-01-10T06:32:41.551Z,0
2019-01-10T06:33:51.395Z,0
2019-01-10T06:35:01.546Z,0
2019-01-10T06:36:11.658Z,0
2019-01-10T06:37:21.821Z,0
2019-01-10T06:38:31.925Z,0
2019-01-10T06:39:42.030Z,0
2019-01-10T06:40:52.133Z,0
2019-01-10T06:42:02.240Z,0
2019-01-10T06:43:12.090Z,0
2019-01-10T06:44:24.012Z,0
2019-01-10T06:45:34.185Z,0
2019-01-10T06:46:44.296Z,0
2019-01-10T06:47:54.449Z,0
2019-01-10T06:49:04.555Z,0
2019-01-10T06:50:14.663Z,0
2019-01-10T06:51:24.985Z,0
2019-01-10T06:52:35.108Z,0
2019-01-10T06:53:45.209Z,0
2019-01-10T06:55:05.938Z,0
2019-01-10T06:56:16.054Z,0
2019-01-10T06:57:26.160Z,0
2019-01-10T06:58:36.306Z,0
2019-01-10T06:59:46.498Z,0
2019-01-10T07:00:56.599Z,0
2019-01-10T07:02:07.041Z,0
2019-01-10T07:03:17.233Z,0
2019-01-10T07:04:27.382Z,0
2019-01-10T07:05:37.496Z,0
2019-01-10T07:06:47.605Z,0
2019-01-10T07:08:06.164Z,0
2019-01-10T07:09:15.905Z,0
2019-01-10T07:10:26.006Z,0
2019-01-10T07:11:36.107Z,0
2019-01-10T07:12:47.127Z,0
2019-01-10T07:13:57.024Z,5
2019-01-10T07:15:07.136Z,5
2019-01-10T07:16:17.258Z,5
2019-01-10T07:17:27.381Z,5
2019-01-10T07:18:37.712Z,5
2019-01-10T07:19:47.817Z,5
2019-01-10T07:20:59.514Z,5
2019-01-10T07:22:09.367Z,5
2019-01-10T07:23:19.488Z,5
2019-01-10T07:24:30.897Z,10
2019-01-10T07:25:40.996Z,10
2019-01-10T07:26:51.091Z,10
2019-01-10T07:28:01.583Z,10
2019-01-10T07:29:11.676Z,10
2019-01-10T07:30:21.789Z,15
2019-01-10T07:31:31.892Z,15
2019-01-10T07:32:42.003Z,15
2019-01-10T07:33:52.128Z,15
2019-01-10T07:35:02.230Z,20
2019-01-10T07:36:12.347Z,20
2019-01-10T07:37:22.653Z,20
2019-01-10T07:38:32.795Z,20
2019-01-10T07:39:42.897Z,20
2019-01-10T07:40:52.861Z,20
2019-01-10T07:42:02.993Z,25
2019-01-10T07:43:12.857Z,25
2019-01-10T07:44:22.707Z,25
2019-01-10T07:45:32.549Z,25
2019-01-10T07:46:42.655Z,25
2019-01-10T07:47:52.769Z,30
2019-01-10T07:49:02.872Z,30
2019-01-10T07:50:13.116Z,35
2019-01-10T07:51:23.254Z,40
2019-01-10T07:52:34.606Z,35
2019-01-10T07:53:44.728Z,35
2019-01-10T07:54:54.834Z,40
2019-01-10T07:56:04.963Z,45
2019-01-10T07:57:15.119Z,45
2019-01-10T07:58:25.256Z,45
2019-01-10T07:59:35.361Z,50
2019-01-10T08:00:45.488Z,50
2019-01-10T08:01:55.605Z,55
2019-01-10T08:03:05.716Z,60
2019-01-10T08:04:15.851Z,65
2019-01-10T08:05:25.947Z,65
2019-01-10T08:06:36.067Z,60
2019-01-10T08:07:46.200Z,60
2019-01-10T08:08:56.298Z,60
2019-01-10T08:10:06.398Z,60
2019-01-10T08:11:16.507Z,60
2019-01-10T08:12:26.603Z,65
2019-01-10T08:13:36.700Z,75
2019-01-10T08:14:46.817Z,75
2019-01-10T08:15:56.920Z,70
2019-01-10T08:17:15.701Z,65
2019-01-10T08:18:26.023Z,65
2019-01-10T08:19:36.113Z,75
2019-01-10T08:20:46.233Z,85
2019-01-10T08:21:56.505Z,90
2019-01-10T08:23:06.693Z,95
2019-01-10T08:24:16.796Z,90
2019-01-10T08:25:26.591Z,90
2019-01-10T08:26:36.741Z,85
2019-01-10T08:27:46.680Z,90
2019-01-10T08:28:56.778Z,90
2019-01-10T08:30:06.628Z,90
2019-01-10T08:31:16.765Z,100
2019-01-10T08:32:26.916Z,95
2019-01-10T08:33:37.101Z,105
2019-01-10T08:34:47.210Z,100
2019-01-10T08:35:57.334Z,95
2019-01-10T08:37:07.442Z,95
2019-01-10T08:38:17.537Z,95
2019-01-10T08:39:27.665Z,100
2019-01-10T08:40:37.797Z,100
2019-01-10T08:41:47.895Z,105
2019-01-10T08:42:58.128Z,105
2019-01-10T08:44:07.988Z,105
2019-01-10T08:45:26.534Z,115
2019-01-10T08:46:36.654Z,115
2019-01-10T08:47:46.802Z,120
2019-01-10T08:48:56.912Z,130
2019-01-10T08:50:07.031Z,125
2019-01-10T08:51:17.186Z,125
2019-01-10T08:52:27.297Z,140
2019-01-10T08:53:37.452Z,135
2019-01-10T08:54:47.600Z,130
2019-01-10T08:55:57.705Z,130
2019-01-10T08:57:07.831Z,120
2019-01-10T08:58:17.940Z,120
2019-01-10T08:59:28.050Z,125
2019-01-10T09:00:38.389Z,135
2019-01-10T09:01:48.268Z,135
2019-01-10T09:02:58.373Z,135
2019-01-10T09:04:08.478Z,140
2019-01-10T09:05:19.612Z,145
2019-01-10T09:06:29.724Z,160
2019-01-10T09:07:39.835Z,180
2019-01-10T09:08:49.960Z,175
2019-01-10T09:10:00.266Z,170
2019-01-10T09:11:10.172Z,180
2019-01-10T09:12:20.294Z,185
2019-01-10T09:13:30.419Z,185
2019-01-10T09:14:40.641Z,185
2019-01-10T09:15:50.813Z,180
2019-01-10T09:17:00.936Z,175
2019-01-10T09:18:11.165Z,180
2019-01-10T09:19:21.278Z,185
2019-01-10T09:20:31.412Z,190
2019-01-10T09:21:41.527Z,180
2019-01-10T09:22:51.651Z,175
2019-01-10T09:24:01.770Z,170
2019-01-10T09:25:11.908Z,160
2019-01-10T09:26:22.030Z,155
2019-01-10T09:27:32.138Z,155
2019-01-10T09:28:42.248Z,155
2019-01-10T09:29:52.391Z,165
2019-01-10T09:31:02.524Z,170
2019-01-10T09:32:12.648Z,170
2019-01-10T09:33:22.758Z,170
2019-01-10T09:34:34.656Z,170
2019-01-10T09:35:44.794Z,180
2019-01-10T09:36:54.304Z,195
2019-01-10T09:38:04.453Z,190
2019-01-10T09:39:14.580Z,185
2019-01-10T09:40:24.717Z,180
2019-01-10T09:41:34.901Z,180
2019-01-10T09:42:45.028Z,180
2019-01-10T09:43:55.142Z,180
2019-01-10T09:45:05.266Z,195
2019-01-10T09:46:15.383Z,205
2019-01-10T09:47:25.501Z,215
2019-01-10T09:48:35.620Z,215
2019-01-10T09:49:45.510Z,210
2019-01-10T09:50:55.729Z,210
2019-01-10T09:52:05.905Z,220
2019-01-10T09:53:16.035Z,225
2019-01-10T09:54:26.166Z,230
2019-01-10T09:55:36.290Z,260
2019-01-10T09:56:46.415Z,265
2019-01-10T09:57:56.525Z,270
2019-01-10T09:59:06.633Z,275
2019-01-10T10:00:16.763Z,270
2019-01-10T10:01:26.909Z,260
2019-01-10T10:02:37.030Z,265
2019-01-10T10:03:47.405Z,265
2019-01-10T10:04:57.527Z,260
2019-01-10T10:06:17.271Z,245
2019-01-10T10:07:27.396Z,240
2019-01-10T10:08:37.558Z,230
2019-01-10T10:09:47.686Z,225
2019-01-10T10:10:57.843Z,225
2019-01-10T10:12:07.954Z,230
2019-01-10T10:13:18.075Z,235
2019-01-10T10:14:28.188Z,240
2019-01-10T10:15:38.304Z,250
2019-01-10T10:16:48.459Z,255
2019-01-10T10:17:58.608Z,275
2019-01-10T10:19:08.768Z,250
2019-01-10T10:20:19.654Z,245
2019-01-10T10:21:29.769Z,235
2019-01-10T10:22:39.929Z,230
2019-01-10T10:23:50.113Z,230
2019-01-10T10:25:00.245Z,235
2019-01-10T10:26:10.373Z,230
2019-01-10T10:27:20.515Z,230
2019-01-10T10:28:30.633Z,235
2019-01-10T10:29:40.741Z,250
2019-01-10T10:30:50.892Z,310
2019-01-10T10:32:01.000Z,285
2019-01-10T10:33:11.137Z,270
2019-01-10T10:34:21.273Z,290
2019-01-10T10:35:31.392Z,310
2019-01-10T10:36:41.255Z,300
2019-01-10T10:37:51.359Z,310
2019-01-10T10:39:01.475Z,320
2019-01-10T10:40:11.609Z,330
2019-01-10T10:41:21.713Z,330
2019-01-10T10:42:32.539Z,335
2019-01-10T10:43:42.875Z,315
2019-01-10T10:44:52.987Z,305
2019-01-10T10:46:11.041Z,305
2019-01-10T10:47:21.179Z,305
2019-01-10T10:48:31.313Z,325
2019-01-10T10:49:41.427Z,350
2019-01-10T10:50:51.568Z,365
2019-01-10T10:52:01.698Z,320
2019-01-10T10:53:11.811Z,295
2019-01-10T10:54:21.935Z,285
2019-01-10T10:55:32.066Z,255
2019-01-10T10:56:41.733Z,220
2019-01-10T10:57:51.880Z,205
2019-01-10T10:59:02.000Z,165
2019-01-10T11:00:12.129Z,140
2019-01-10T11:01:22.243Z,130
2019-01-10T11:02:32.460Z,115
2019-01-10T11:03:43.772Z,110
2019-01-10T11:04:53.898Z,105
2019-01-10T11:06:04.013Z,110
2019-01-10T11:07:14.146Z,110
2019-01-10T11:08:24.269Z,105
2019-01-10T11:09:34.379Z,105
2019-01-10T11:10:44.546Z,110
2019-01-10T11:11:54.677Z,110
2019-01-10T11:13:04.808Z,105
2019-01-10T11:14:14.980Z,90
2019-01-10T11:15:25.219Z,95
2019-01-10T11:16:35.348Z,100
2019-01-10T11:17:45.463Z,90
2019-01-10T11:18:55.580Z,85
2019-01-10T11:20:05.694Z,85
2019-01-10T11:21:15.807Z,90
2019-01-10T11:22:25.915Z,90
2019-01-10T11:23:36.036Z,100
2019-01-10T11:24:47.153Z,95
2019-01-10T11:25:57.265Z,90
2019-01-10T11:27:07.401Z,80
2019-01-10T11:28:17.520Z,70
2019-01-10T11:29:27.641Z,70
2019-01-10T11:30:37.782Z,65
2019-01-10T11:31:47.918Z,60
2019-01-10T11:32:58.709Z,55
2019-01-10T11:34:08.843Z,60
2019-01-10T11:35:18.967Z,60
2019-01-10T11:36:28.859Z,65
2019-01-10T11:37:39.004Z,70
2019-01-10T11:38:50.112Z,75
2019-01-10T11:40:00.288Z,80
2019-01-10T11:41:10.633Z,80
2019-01-10T11:42:20.750Z,80
2019-01-10T11:43:30.887Z,70
2019-01-10T11:44:41.010Z,70
2019-01-10T11:45:50.879Z,65
2019-01-10T11:47:01.013Z,70
2019-01-10T11:48:11.139Z,75
2019-01-10T11:49:21.271Z,80
2019-01-10T11:50:31.399Z,90
2019-01-10T11:51:41.519Z,90
2019-01-10T11:52:51.658Z,85
2019-01-10T11:54:01.780Z,80
2019-01-10T11:55:11.546Z,75
2019-01-10T11:56:21.669Z,65
2019-01-10T11:57:31.781Z,55
2019-01-10T11:58:41.893Z,50
2019-01-10T11:59:52.041Z,45
2019-01-10T12:01:01.901Z,40
2019-01-10T12:02:12.005Z,45
2019-01-10T12:03:22.148Z,50
2019-01-10T12:04:32.277Z,55
2019-01-10T12:05:52.997Z,60
2019-01-10T12:07:03.358Z,65
2019-01-10T12:08:13.486Z,65
2019-01-10T12:09:23.590Z,60
2019-01-10T12:10:33.707Z,60
2019-01-10T12:11:45.627Z,60
2019-01-10T12:12:55.747Z,60
2019-01-10T12:14:05.862Z,60
2019-01-10T12:15:15.992Z,60
2019-01-10T12:16:33.404Z,60
2019-01-10T12:17:43.529Z,65
2019-01-10T12:19:01.560Z,75
2019-01-10T12:20:11.675Z,80
2019-01-10T12:21:21.425Z,85
2019-01-10T12:22:31.554Z,105
2019-01-10T12:23:41.679Z,120
2019-01-10T12:24:51.830Z,125
2019-01-10T12:26:01.978Z,125
2019-01-10T12:27:12.092Z,130
2019-01-10T12:28:22.196Z,130
2019-01-10T12:29:40.854Z,130
2019-01-10T12:30:50.718Z,120
2019-01-10T12:32:00.835Z,115
2019-01-10T12:33:10.944Z,110
2019-01-10T12:34:21.059Z,120
2019-01-10T12:35:31.242Z,120
2019-01-10T12:36:42.335Z,110
2019-01-10T12:37:52.469Z,105
2019-01-10T12:39:03.534Z,105
2019-01-10T12:40:13.757Z,95
2019-01-10T12:41:23.910Z,90
2019-01-10T12:42:34.227Z,85
2019-01-10T12:43:44.338Z,85
2019-01-10T12:44:54.464Z,80
2019-01-10T12:46:05.925Z,75
2019-01-10T12:47:16.269Z,70
2019-01-10T12:48:26.389Z,65
2019-01-10T12:49:36.506Z,65
2019-01-10T12:50:46.608Z,70
2019-01-10T12:51:56.730Z,65
2019-01-10T12:53:06.853Z,65
2019-01-10T12:54:17.003Z,60
2019-01-10T12:55:27.110Z,60
2019-01-10T12:56:37.252Z,60
2019-01-10T12:57:47.493Z,65
2019-01-10T12:58:57.609Z,65
2019-01-10T13:00:07.527Z,60
2019-01-10T13:01:17.674Z,65
2019-01-10T13:02:27.807Z,65
2019-01-10T13:03:37.944Z,65
2019-01-10T13:04:48.082Z,65
2019-01-10T13:05:58.201Z,70
2019-01-10T13:07:08.332Z,85
2019-01-10T13:08:18.442Z,85
2019-01-10T13:09:28.059Z,85
2019-01-10T13:10:38.169Z,80
2019-01-10T13:11:48.288Z,80
2019-01-10T13:12:58.421Z,80
2019-01-10T13:14:12.803Z,70
2019-01-10T13:15:22.931Z,65
2019-01-10T13:16:33.068Z,60
2019-01-10T13:17:43.200Z,60
2019-01-10T13:18:53.331Z,55
2019-01-10T13:20:03.460Z,50
2019-01-10T13:21:14.609Z,50
2019-01-10T13:22:24.761Z,50
2019-01-10T13:23:34.910Z,55
2019-01-10T13:24:46.707Z,50
2019-01-10T13:26:04.555Z,45
2019-01-10T13:27:14.677Z,45
2019-01-10T13:28:24.852Z,45
2019-01-10T13:29:34.974Z,45
2019-01-10T13:30:45.997Z,40
2019-01-10T13:31:56.126Z,40
2019-01-10T13:33:05.873Z,40
2019-01-10T13:34:16.018Z,35
2019-01-10T13:35:26.151Z,40
2019-01-10T13:36:36.302Z,40
2019-01-10T13:37:46.424Z,45
2019-01-10T13:38:56.570Z,45
2019-01-10T13:40:06.705Z,45
2019-01-10T13:41:17.946Z,45
2019-01-10T13:42:28.120Z,45
2019-01-10T13:43:38.228Z,45
2019-01-10T13:44:48.356Z,45
2019-01-10T13:46:00.295Z,45
2019-01-10T13:47:10.473Z,45
2019-01-10T13:48:20.605Z,40
2019-01-10T13:49:30.737Z,40
2019-01-10T13:50:40.861Z,35
2019-01-10T13:51:50.998Z,35
2019-01-10T13:53:01.129Z,30
2019-01-10T13:54:11.245Z,30
2019-01-10T13:55:21.118Z,35
2019-01-10T13:56:31.262Z,30
2019-01-10T13:57:41.397Z,30
2019-01-10T13:58:51.520Z,30
2019-01-10T14:00:01.643Z,30
2019-01-10T14:01:11.787Z,30
2019-01-10T14:02:21.931Z,30
2019-01-10T14:03:32.054Z,35
2019-01-10T14:04:42.216Z,35
2019-01-10T14:05:52.335Z,35
2019-01-10T14:07:02.475Z,35
2019-01-10T14:08:12.632Z,30
2019-01-10T14:09:22.806Z,30
2019-01-10T14:10:32.937Z,30
2019-01-10T14:11:43.070Z,25
2019-01-10T14:12:53.192Z,25
2019-01-10T14:14:03.333Z,25
2019-01-10T14:15:13.459Z,20
2019-01-10T14:16:23.585Z,20
2019-01-10T14:18:43.879Z,20
2019-01-10T14:19:54.003Z,25
2019-01-10T14:21:05.100Z,25
2019-01-10T14:22:15.238Z,25
2019-01-10T14:23:25.359Z,20
2019-01-10T14:24:35.469Z,20
2019-01-10T14:25:45.589Z,25
2019-01-10T14:26:55.736Z,20
2019-01-10T14:28:08.940Z,20
2019-01-10T14:29:20.484Z,20
2019-01-10T14:30:30.616Z,20
2019-01-10T14:31:40.736Z,20
2019-01-10T14:32:50.872Z,20
2019-01-10T14:34:01.003Z,15
2019-01-10T14:35:11.113Z,15
2019-01-10T14:36:21.295Z,15
2019-01-10T14:37:31.188Z,15
2019-01-10T14:38:41.360Z,15
2019-01-10T14:39:51.743Z,15
2019-01-10T14:41:01.853Z,10
2019-01-10T14:42:11.981Z,10
2019-01-10T14:43:22.107Z,10
2019-01-10T14:44:32.224Z,10
2019-01-10T14:45:43.184Z,10
2019-01-10T14:46:53.327Z,10
2019-01-10T14:48:09.057Z,10
2019-01-10T14:49:19.182Z,10
2019-01-10T14:50:29.340Z,10
2019-01-10T14:51:39.475Z,10
2019-01-10T14:52:49.612Z,10
2019-01-10T14:53:59.763Z,5
2019-01-10T14:55:09.924Z,5
2019-01-10T14:56:20.055Z,5
2019-01-10T14:57:30.210Z,5
2019-01-10T14:58:40.351Z,5
2019-01-10T14:59:50.220Z,5
2019-01-10T15:01:00.370Z,5
2019-01-10T15:02:11.964Z,5
2019-01-10T15:03:22.117Z,5
2019-01-10T15:04:32.343Z,5
2019-01-10T15:05:44.359Z,5
2019-01-10T15:06:54.486Z,0
2019-01-10T15:08:05.002Z,0
2019-01-10T15:09:15.149Z,0
2019-01-10T15:10:25.312Z,0
2019-01-10T15:11:35.476Z,0
2019-01-10T15:12:46.849Z,0
2019-01-10T15:13:57.049Z,0
2019-01-10T15:15:07.363Z,0
2019-01-10T15:16:17.231Z,0
2019-01-10T15:17:27.364Z,0
2019-01-10T15:18:37.526Z,0
2019-01-10T15:19:47.671Z,0
2019-01-10T15:20:57.805Z,0
2019-01-10T15:22:08.788Z,0
2019-01-10T15:23:18.921Z,0
2019-01-10T15:24:29.072Z,0
2019-01-10T15:25:39.222Z,0
2019-01-10T15:26:49.389Z,0
2019-01-10T15:27:59.600Z,0
2019-01-10T15:29:09.500Z,0
2019-01-10T15:30:19.645Z,0
2019-01-10T15:31:29.796Z,0
2019-01-10T15:32:39.954Z,0
2019-01-10T15:33:50.119Z,0
2019-01-10T15:35:00.242Z,0
2019-01-10T15:36:10.393Z,0
2019-01-10T15:37:20.567Z,0
2019-01-10T15:38:30.766Z,0
2019-01-10T15:39:40.887Z,0
2019-01-10T15:40:51.038Z,0
2019-01-10T15:42:01.166Z,0
2019-01-10T15:43:11.317Z,0
2019-01-10T15:44:21.487Z,0
2019-01-10T15:45:31.648Z,0
2019-01-10T15:46:41.844Z,0
2019-01-10T15:47:52.001Z,0
2019-01-10T15:49:02.176Z,0
2019-01-10T15:50:12.497Z,0
2019-01-10T15:51:22.644Z,0
2019-01-10T15:52:32.406Z,0
2019-01-10T15:53:42.376Z,0
2019-01-10T15:54:52.617Z,0
2019-01-10T15:56:02.790Z,0
2019-01-10T15:57:12.959Z,0
2019-01-10T15:58:23.136Z,0
2019-01-10T15:59:33.262Z,0
2019-01-10T16:00:43.406Z,0
2019-01-10T16:01:53.519Z,0
2019-01-10T16:03:03.680Z,0
2019-01-10T16:04:16.956Z,0
2019-01-10T16:05:27.352Z,0
2019-01-10T16:06:37.494Z,0
2019-01-10T16:07:47.639Z,0
2019-01-10T16:08:57.798Z,0
2019-01-10T16:10:07.966Z,0
2019-01-10T16:11:18.122Z,0
2019-01-10T16:12:28.261Z,0
2019-01-10T16:13:38.469Z,0
2019-01-10T16:14:48.657Z,0
2019-01-10T16:15:58.827Z,0
2019-01-10T16:17:08.991Z,0
2019-01-10T16:18:19.928Z,0
2019-01-10T16:19:30.097Z,0
2019-01-10T16:20:40.011Z,0
2019-01-10T16:21:50.200Z,0
2019-01-10T16:23:00.395Z,0
2019-01-10T16:24:10.534Z,0
2019-01-10T16:25:22.175Z,0
2019-01-10T16:26:32.352Z,0
2019-01-10T16:27:42.514Z,0
2019-01-10T16:28:52.686Z,0
2019-01-10T16:30:03.357Z,0
2019-01-10T16:31:13.522Z,0
2019-01-10T16:32:23.669Z,0
2019-01-10T16:33:34.780Z,0
2019-01-10T16:34:44.943Z,0
2019-01-10T16:35:55.146Z,0
2019-01-10T16:37:05.297Z,0
2019-01-10T16:38:15.467Z,0
2019-01-10T16:39:25.652Z,0
2019-01-10T16:40:35.829Z,0
2019-01-10T16:41:45.966Z,0
2019-01-10T16:42:56.136Z,0
2019-01-10T16:44:06.277Z,0
2019-01-10T16:45:16.428Z,0
2019-01-10T16:46:26.578Z,0
2019-01-10T16:47:41.375Z,0
2019-01-10T16:48:51.508Z,0
2019-01-10T16:50:02.750Z,0
2019-01-10T16:51:12.923Z,0
2019-01-10T16:52:23.141Z,0
2019-01-10T16:53:33.805Z,0
2019-01-10T16:54:43.934Z,0
2019-01-10T16:55:54.098Z,0
2019-01-10T16:57:04.268Z,0
2019-01-10T16:58:14.399Z,0
2019-01-10T16:59:24.558Z,0
2019-01-10T17:00:34.722Z,0
2019-01-10T17:01:44.844Z,0
2019-01-10T17:02:54.613Z,0
2019-01-10T17:04:04.731Z,0
2019-01-10T17:05:14.902Z,0
2019-01-10T17:06:25.052Z,0
2019-01-10T17:07:35.985Z,0
2019-01-10T17:08:46.172Z,0
2019-01-10T17:09:56.310Z,0
2019-01-10T17:11:06.453Z,0
2019-01-10T17:12:16.599Z,0
2019-01-10T17:13:26.750Z,0
2019-01-10T17:14:36.881Z,0
2019-01-10T17:15:47.037Z,0
2019-01-10T17:17:00.003Z,0
2019-01-10T17:18:10.180Z,0
2019-01-10T17:19:20.364Z,0
2019-01-10T17:20:31.651Z,0
2019-01-10T17:21:41.914Z,0
2019-01-10T17:22:52.098Z,0
2019-01-10T17:24:02.265Z,0
2019-01-10T17:25:12.442Z,0
2019-01-10T17:26:22.607Z,0
2019-01-10T17:27:32.774Z,0
2019-01-10T17:28:42.913Z,0
2019-01-10T17:29:52.816Z,0
2019-01-10T17:31:02.625Z,0
2019-01-10T17:32:12.826Z,0
2019-01-10T17:33:22.995Z,0
2019-01-10T17:34:33.144Z,0
2019-01-10T17:35:43.282Z,0
2019-01-10T17:36:53.442Z,0
2019-01-10T17:38:03.794Z,0
2019-01-10T17:39:13.920Z,0
2019-01-10T17:40:24.111Z,0
2019-01-10T17:41:34.419Z,0
2019-01-10T17:42:44.635Z,0
2019-01-10T17:43:54.806Z,0
2019-01-10T17:45:05.023Z,0
2019-01-10T17:46:15.186Z,0
2019-01-10T17:47:25.315Z,0
2019-01-10T17:48:35.181Z,0
2019-01-10T17:49:45.447Z,0
2019-01-10T17:50:55.587Z,0
2019-01-10T17:52:05.723Z,0
2019-01-10T17:53:15.871Z,0
2019-01-10T17:54:26.071Z,0
2019-01-10T17:55:37.190Z,0
2019-01-10T17:56:47.354Z,0
2019-01-10T17:57:57.558Z,0
2019-01-10T17:59:07.704Z,0
2019-01-10T18:00:17.890Z,0
2019-01-10T18:01:27.792Z,0
2019-01-10T18:02:37.966Z,0
2019-01-10T18:03:50.324Z,0